Time;durP1;ratioP1;P1;durP2;ratioP2;P2;SDS_P1;SDS_P2;PMS_P1;PMS_P2;Temp;Humidity;BMP_temperature;BMP_pressure;BME280_temperature;BME280_humidity;BME280_pressure;Samples;Min_cycle;Max_cycle;Signal;HPM_P1;HPM_P2
2023/04/13 00:01:59;;;;;;;;;;;10.90;57.80;;;;;;5113610;28;19985;-64
2023/04/13 00:04:25;;;;;;;;;;;10.90;56.30;;;;;;5116064;28;19988;-65
2023/04/13 00:06:51;;;;;;;;;;;11.00;57.30;;;;;;5117792;28;20442;-64
2023/04/13 00:09:17;;;;;;;;;;;11.00;55.30;;;;;;5117385;28;20010;-63
2023/04/13 00:11:45;;;;;;;;;;;11.00;55.20;;;;;;5117260;28;19988;-63
2023/04/13 00:14:11;;;;;;;;;;;10.90;56.00;;;;;;5117386;28;19988;-63
2023/04/13 00:16:37;;;;;;;;;;;10.90;56.10;;;;;;5117245;27;20149;-64
2023/04/13 00:19:03;;;;;;;;;;;10.90;56.70;;;;;;5117194;28;20052;-63
2023/04/13 00:21:28;;;;;;;;;;;10.90;56.70;;;;;;5117514;28;20073;-65
2023/04/13 00:23:54;;;;;;;;;;;10.90;55.90;;;;;;5117152;28;20050;-63
2023/04/13 00:26:21;;;;;;;;;;;10.80;56.00;;;;;;5117130;28;20009;-64
2023/04/13 00:28:47;;;;;;;;;;;10.80;57.70;;;;;;5117098;28;20353;-65
2023/04/13 00:31:13;;;;;;;;;;;10.80;58.10;;;;;;5117022;28;19992;-64
2023/04/13 00:33:40;;;;;;;;;;;10.80;57.60;;;;;;5117087;28;19985;-63
2023/04/13 00:36:05;;;;;;;;;;;10.50;61.00;;;;;;5116893;28;20043;-64
2023/04/13 00:38:31;;;;;;;;;;;10.40;61.90;;;;;;5116862;28;20458;-63
2023/04/13 00:40:56;;;;;;;;;;;10.40;62.90;;;;;;5116583;28;20039;-63
2023/04/13 00:43:22;;;;;;;;;;;10.50;62.40;;;;;;5117123;28;19988;-64
2023/04/13 00:45:48;;;;;;;;;;;10.50;61.30;;;;;;5116857;28;19990;-65
2023/04/13 00:48:14;;;;;;;;;;;10.50;60.60;;;;;;5116670;28;19992;-62
2023/04/13 00:50:40;;;;;;;;;;;10.60;60.80;;;;;;5116698;28;19989;-63
2023/04/13 00:53:06;;;;;;;;;;;10.60;59.40;;;;;;5116643;28;20133;-64
2023/04/13 00:55:32;;;;;;;;;;;10.60;58.90;;;;;;5116379;28;20024;-63
2023/04/13 00:57:58;;;;;;;;;;;10.70;58.40;;;;;;5116553;28;20503;-64
2023/04/13 01:00:24;;;;;;;;;;;10.70;59.50;;;;;;5116522;28;19992;-64
2023/04/13 01:02:51;;;;;;;;;;;10.60;60.10;;;;;;5116447;28;20346;-64
2023/04/13 01:05:17;;;;;;;;;;;10.50;59.70;;;;;;5116472;27;19995;-63
2023/04/13 01:07:43;;;;;;;;;;;10.50;61.20;;;;;;5116386;28;19985;-63
2023/04/13 01:10:09;;;;;;;;;;;10.50;60.60;;;;;;5116356;28;19988;-64
2023/04/13 01:12:43;;;;;;;;;;;10.40;58.80;;;;;;5116325;28;20034;-64
2023/04/13 01:15:11;;;;;;;;;;;10.40;59.30;;;;;;5115349;28;19983;-63
2023/04/13 01:17:38;;;;;;;;;;;10.40;58.60;;;;;;5116033;28;19994;-65
2023/04/13 01:20:12;;;;;;;;;;;10.40;58.20;;;;;;5116270;28;20419;-63
2023/04/13 01:22:46;;;;;;;;;;;10.50;57.40;;;;;;5116325;28;20079;-63
2023/04/13 01:25:36;;;;;;;;;;;10.50;59.70;;;;;;5115880;28;20024;-65
2023/04/13 01:28:02;;;;;;;;;;;10.50;58.60;;;;;;5115994;28;19985;-65
2023/04/13 01:30:31;;;;;;;;;;;10.40;58.20;;;;;;5115944;28;20498;-63
2023/04/13 01:32:58;;;;;;;;;;;10.30;59.30;;;;;;5115969;28;20038;-63
2023/04/13 01:35:24;;;;;;;;;;;10.30;60.10;;;;;;5115874;28;20027;-64
2023/04/13 01:37:51;;;;;;;;;;;10.30;59.80;;;;;;5115985;28;19996;-65
2023/04/13 01:40:18;;;;;;;;;;;10.30;59.50;;;;;;5115558;28;20450;-63
2023/04/13 01:42:43;;;;;;;;;;;10.20;60.70;;;;;;5115645;28;19995;-65
2023/04/13 01:45:20;;;;;;;;;;;10.20;61.60;;;;;;5115601;28;19986;-63
2023/04/13 01:47:51;;;;;;;;;;;10.20;61.20;;;;;;5115850;28;19989;-65
2023/04/13 01:50:24;;;;;;;;;;;10.20;63.40;;;;;;5115465;28;20041;-66
2023/04/13 01:52:52;;;;;;;;;;;10.20;62.50;;;;;;5115268;28;20092;-64
2023/04/13 01:55:17;;;;;;;;;;;10.20;62.60;;;;;;5115425;28;19996;-65
2023/04/13 01:57:44;;;;;;;;;;;10.30;60.70;;;;;;5115176;28;19989;-63
2023/04/13 02:00:11;;;;;;;;;;;10.20;60.90;;;;;;5115379;28;19985;-65
2023/04/13 02:02:37;;;;;;;;;;;10.30;60.10;;;;;;5115354;28;20064;-65
2023/04/13 02:05:03;;;;;;;;;;;10.30;62.80;;;;;;5115125;28;20443;-65
2023/04/13 02:07:28;;;;;;;;;;;10.30;69.60;;;;;;5115212;28;20059;-64
2023/04/13 02:09:54;;;;;;;;;;;10.20;75.50;;;;;;5115237;28;20422;-64
2023/04/13 02:12:19;;;;;;;;;;;10.00;76.10;;;;;;5115008;28;20037;-64
2023/04/13 02:14:45;;;;;;;;;;;10.00;76.80;;;;;;5115038;28;19985;-65
2023/04/13 02:17:11;;;;;;;;;;;10.10;79.90;;;;;;5115558;28;19989;-63
2023/04/13 02:19:36;;;;;;;;;;;10.00;76.90;;;;;;5114779;28;20385;-65
2023/04/13 02:22:02;;;;;;;;;;;10.00;80.60;;;;;;5114960;28;19985;-65
2023/04/13 02:24:29;;;;;;;;;;;9.90;80.20;;;;;;5114935;28;19992;-64
2023/04/13 02:26:55;;;;;;;;;;;9.90;81.00;;;;;;5114908;28;20096;-65
2023/04/13 02:29:21;;;;;;;;;;;9.80;82.40;;;;;;5114761;28;19995;-65
2023/04/13 02:31:47;;;;;;;;;;;9.80;77.80;;;;;;5114717;28;20358;-65
2023/04/13 02:34:13;;;;;;;;;;;9.80;79.10;;;;;;5114603;28;20439;-63
2023/04/13 02:36:39;;;;;;;;;;;9.80;77.60;;;;;;5114191;28;20031;-64
2023/04/13 02:39:05;;;;;;;;;;;9.90;75.80;;;;;;5114955;28;20013;-65
2023/04/13 02:41:30;;;;;;;;;;;9.80;77.40;;;;;;5114586;28;19992;-64
2023/04/13 02:43:56;;;;;;;;;;;9.70;84.20;;;;;;5114472;28;19984;-63
2023/04/13 02:46:22;;;;;;;;;;;9.50;87.60;;;;;;5114531;28;19985;-63
2023/04/13 02:48:47;;;;;;;;;;;9.50;90.00;;;;;;5114357;28;20015;-65
2023/04/13 02:51:13;;;;;;;;;;;9.30;90.10;;;;;;5114190;28;20027;-65
2023/04/13 02:53:39;;;;;;;;;;;9.40;89.00;;;;;;5114443;28;19985;-63
2023/04/13 02:56:05;;;;;;;;;;;9.40;85.80;;;;;;5114403;28;20071;-64
2023/04/13 02:58:31;;;;;;;;;;;9.50;85.70;;;;;;5114283;28;20404;-64
2023/04/13 03:00:57;;;;;;;;;;;9.50;85.10;;;;;;5114305;28;19993;-65
2023/04/13 03:03:23;;;;;;;;;;;9.50;85.70;;;;;;5114563;28;20020;-65
2023/04/13 03:05:50;;;;;;;;;;;9.50;83.70;;;;;;5114094;28;20079;-64
2023/04/13 03:08:16;;;;;;;;;;;9.50;83.30;;;;;;5114133;28;19993;-62
2023/04/13 03:10:43;;;;;;;;;;;9.40;83.50;;;;;;5114263;28;19985;-63
2023/04/13 03:13:09;;;;;;;;;;;9.40;85.40;;;;;;5114199;28;20033;-65
2023/04/13 03:15:35;;;;;;;;;;;9.40;81.00;;;;;;5114312;28;20028;-64
2023/04/13 03:18:02;;;;;;;;;;;9.40;85.70;;;;;;5114098;28;20535;-63
2023/04/13 03:20:28;;;;;;;;;;;9.40;83.30;;;;;;5113985;28;20001;-63
2023/04/13 03:22:54;;;;;;;;;;;9.40;83.20;;;;;;5114036;28;19992;-65
2023/04/13 03:25:20;;;;;;;;;;;9.20;84.90;;;;;;5114318;28;19991;-64
2023/04/13 03:27:45;;;;;;;;;;;9.20;85.80;;;;;;5114281;28;20004;-63
2023/04/13 03:30:11;;;;;;;;;;;9.20;89.50;;;;;;5114224;28;19992;-64
2023/04/13 03:32:37;;;;;;;;;;;9.20;90.10;;;;;;5113934;28;20031;-63
2023/04/13 03:35:03;;;;;;;;;;;9.10;89.40;;;;;;5113628;28;20033;-63
2023/04/13 03:37:31;;;;;;;;;;;8.90;92.30;;;;;;5113819;28;20032;-65
2023/04/13 03:39:57;;;;;;;;;;;8.80;94.60;;;;;;5117291;28;20015;-65
2023/04/13 03:42:22;;;;;;;;;;;8.80;95.80;;;;;;5118308;28;20083;-64
2023/04/13 03:44:48;;;;;;;;;;;8.80;95.30;;;;;;5118015;28;19991;-65
2023/04/13 03:47:14;;;;;;;;;;;8.90;95.00;;;;;;5117887;28;19992;-64
2023/04/13 03:49:40;;;;;;;;;;;8.80;95.70;;;;;;5117646;28;20505;-64
2023/04/13 03:52:05;;;;;;;;;;;8.70;96.50;;;;;;5117867;27;20130;-64
2023/04/13 03:54:31;;;;;;;;;;;8.80;96.50;;;;;;5117685;28;19996;-63
2023/04/13 03:56:57;;;;;;;;;;;8.80;96.20;;;;;;5117820;28;19985;-65
2023/04/13 03:59:23;;;;;;;;;;;8.70;96.70;;;;;;5117739;28;20013;-63
2023/04/13 04:01:49;;;;;;;;;;;8.70;97.30;;;;;;5116336;28;19988;-65
2023/04/13 04:04:14;;;;;;;;;;;8.60;97.30;;;;;;5117959;28;19988;-66
2023/04/13 04:06:40;;;;;;;;;;;8.60;97.30;;;;;;5117604;28;19985;-64
2023/04/13 04:09:06;;;;;;;;;;;8.70;97.60;;;;;;5117702;28;20506;-65
2023/04/13 04:11:31;;;;;;;;;;;8.70;97.70;;;;;;5117430;28;20431;-63
2023/04/13 04:13:57;;;;;;;;;;;8.60;98.10;;;;;;5116446;28;20076;-63
2023/04/13 04:16:23;;;;;;;;;;;8.50;99.00;;;;;;5117463;28;19989;-65
2023/04/13 04:18:48;;;;;;;;;;;8.60;99.70;;;;;;5116969;28;20064;-64
2023/04/13 04:21:14;;;;;;;;;;;8.60;99.00;;;;;;5117257;28;19984;-63
2023/04/13 04:23:40;;;;;;;;;;;8.70;97.80;;;;;;5117283;28;19985;-65
2023/04/13 04:26:06;;;;;;;;;;;8.60;98.20;;;;;;5116985;28;20340;-64
2023/04/13 04:28:38;;;;;;;;;;;8.60;98.20;;;;;;5117120;28;20030;-65
2023/04/13 04:31:09;;;;;;;;;;;8.60;97.90;;;;;;5117101;28;20449;-64
2023/04/13 04:33:37;;;;;;;;;;;8.50;99.80;;;;;;5116990;28;19989;-65
2023/04/13 04:36:06;;;;;;;;;;;8.30;99.90;;;;;;5116946;28;20535;-65
2023/04/13 04:38:31;;;;;;;;;;;8.40;99.90;;;;;;5116767;28;20008;-63
2023/04/13 04:40:58;;;;;;;;;;;8.50;99.00;;;;;;5116890;28;20015;-66
2023/04/13 04:43:25;;;;;;;;;;;8.50;99.50;;;;;;5117156;28;20347;-64
2023/04/13 04:45:51;;;;;;;;;;;8.50;99.80;;;;;;5117073;28;20389;-63
2023/04/13 04:48:17;;;;;;;;;;;8.50;99.90;;;;;;5116609;28;19997;-65
2023/04/13 04:50:44;;;;;;;;;;;8.50;99.90;;;;;;5115186;28;20028;-63
2023/04/13 04:53:10;;;;;;;;;;;8.40;99.90;;;;;;5116505;28;20083;-63
2023/04/13 04:55:37;;;;;;;;;;;8.30;99.90;;;;;;5116523;28;20458;-65
2023/04/13 04:58:02;;;;;;;;;;;8.30;99.90;;;;;;5116289;28;19984;-65
2023/04/13 05:00:29;;;;;;;;;;;8.30;99.90;;;;;;5116425;28;20357;-65
2023/04/13 05:02:56;;;;;;;;;;;8.40;99.90;;;;;;5116038;28;19985;-65
2023/04/13 05:05:22;;;;;;;;;;;8.60;99.90;;;;;;5111406;28;19993;-65
2023/04/13 05:07:48;;;;;;;;;;;8.80;98.50;;;;;;5095011;28;19985;-64
2023/04/13 05:10:14;;;;;;;;;;;9.00;98.70;;;;;;5094823;28;20443;-65
2023/04/13 05:12:40;;;;;;;;;;;9.00;97.90;;;;;;5095309;28;19985;-65
2023/04/13 05:15:06;;;;;;;;;;;8.90;98.20;;;;;;5095346;28;20000;-65
2023/04/13 05:17:31;;;;;;;;;;;8.80;99.10;;;;;;5095079;28;19993;-64
2023/04/13 05:19:57;;;;;;;;;;;8.70;98.20;;;;;;5095800;28;20467;-65
2023/04/13 05:22:22;;;;;;;;;;;8.70;98.20;;;;;;5095807;28;19985;-63
2023/04/13 05:24:48;;;;;;;;;;;8.70;99.80;;;;;;5095596;28;20360;-63
2023/04/13 05:27:14;;;;;;;;;;;8.70;99.10;;;;;;5095151;28;20344;-63
2023/04/13 05:30:02;;;;;;;;;;;8.90;98.70;;;;;;5095085;28;19985;-65
2023/04/13 05:32:28;;;;;;;;;;;9.30;97.60;;;;;;5095715;28;19993;-64
2023/04/13 05:34:53;;;;;;;;;;;9.70;95.30;;;;;;5094844;28;19995;-63
2023/04/13 05:37:19;;;;;;;;;;;9.80;93.80;;;;;;5094581;28;19992;-63
2023/04/13 05:39:45;;;;;;;;;;;9.80;94.40;;;;;;5094881;28;20016;-64
2023/04/13 05:42:11;;;;;;;;;;;10.00;94.40;;;;;;5094484;28;19992;-63
2023/04/13 05:44:36;;;;;;;;;;;10.20;94.10;;;;;;5094626;28;19984;-63
2023/04/13 05:47:02;;;;;;;;;;;10.30;93.50;;;;;;5093417;28;19986;-64
2023/04/13 05:49:28;;;;;;;;;;;10.60;91.50;;;;;;5093595;28;20032;-63
2023/04/13 05:51:53;;;;;;;;;;;10.90;85.90;;;;;;5093826;28;19985;-65
2023/04/13 05:54:19;;;;;;;;;;;11.20;85.50;;;;;;5093809;28;20406;-64
2023/04/13 05:56:46;;;;;;;;;;;11.50;82.90;;;;;;5094109;28;20041;-64
2023/04/13 05:59:12;;;;;;;;;;;11.70;72.00;;;;;;5094131;28;20020;-63
2023/04/13 06:01:37;;;;;;;;;;;11.90;69.30;;;;;;5092633;28;19989;-63
2023/04/13 06:04:04;;;;;;;;;;;12.10;68.70;;;;;;5093183;28;19984;-63
2023/04/13 06:06:30;;;;;;;;;;;12.30;66.80;;;;;;5093315;28;19996;-62
2023/04/13 06:08:55;;;;;;;;;;;12.50;65.50;;;;;;5093307;28;19985;-65
2023/04/13 06:11:21;;;;;;;;;;;12.80;65.40;;;;;;5093698;28;20377;-62
2023/04/13 06:13:47;;;;;;;;;;;15.10;58.60;;;;;;5092609;28;20088;-63
2023/04/13 06:16:13;;;;;;;;;;;18.40;50.10;;;;;;5086362;28;20113;-61
2023/04/13 06:18:38;;;;;;;;;;;20.80;44.70;;;;;;5087383;28;20016;-65
2023/04/13 06:21:05;;;;;;;;;;;21.70;40.80;;;;;;5092226;28;19989;-64
2023/04/13 06:23:31;;;;;;;;;;;21.90;37.60;;;;;;5084985;28;20344;-63
2023/04/13 06:25:57;;;;;;;;;;;22.10;38.00;;;;;;5088581;28;19989;-61
2023/04/13 06:28:27;;;;;;;;;;;21.90;36.30;;;;;;5090785;28;20362;-62
2023/04/13 06:30:53;;;;;;;;;;;21.00;37.00;;;;;;5089373;28;20411;-65
2023/04/13 06:33:19;;;;;;;;;;;20.30;40.30;;;;;;5088521;28;20073;-62
2023/04/13 06:35:45;;;;;;;;;;;19.90;39.40;;;;;;5089520;28;20066;-65
2023/04/13 06:38:11;;;;;;;;;;;20.30;40.10;;;;;;5089917;28;20017;-62
2023/04/13 06:40:41;;;;;;;;;;;20.90;39.60;;;;;;5090897;28;19996;-64
2023/04/13 06:43:10;;;;;;;;;;;22.60;37.20;;;;;;5089492;28;21709;-61
2023/04/13 06:45:36;;;;;;;;;;;24.60;35.50;;;;;;5094105;28;19993;-67
2023/04/13 06:48:02;;;;;;;;;;;26.30;33.60;;;;;;5094893;28;20000;-65
2023/04/13 06:50:27;;;;;;;;;;;26.90;31.60;;;;;;5097562;28;20003;-63
2023/04/13 06:52:53;;;;;;;;;;;26.70;31.60;;;;;;5099018;28;19993;-61
2023/04/13 06:55:19;;;;;;;;;;;25.70;31.10;;;;;;5099358;28;20358;-66
2023/04/13 06:57:44;;;;;;;;;;;25.10;32.70;;;;;;5104230;28;19992;-65
2023/04/13 07:00:13;;;;;;;;;;;25.70;33.30;;;;;;5093227;28;20474;-65
2023/04/13 07:02:39;;;;;;;;;;;27.00;31.20;;;;;;5096598;28;19989;-64
2023/04/13 07:05:16;;;;;;;;;;;27.80;30.70;;;;;;5100902;28;20361;-67
2023/04/13 07:07:42;;;;;;;;;;;28.20;30.20;;;;;;5098491;28;20027;-65
2023/04/13 07:10:08;;;;;;;;;;;27.30;31.70;;;;;;5098554;28;20076;-61
2023/04/13 07:12:34;;;;;;;;;;;26.40;30.20;;;;;;5087784;28;19989;-63
2023/04/13 07:15:00;;;;;;;;;;;26.10;30.60;;;;;;5088671;28;20020;-61
2023/04/13 07:17:26;;;;;;;;;;;25.30;32.20;;;;;;5070453;28;20036;-62
2023/04/13 07:19:51;;;;;;;;;;;25.10;32.40;;;;;;5068330;28;20009;-62
2023/04/13 07:22:17;;;;;;;;;;;24.80;33.20;;;;;;5068341;28;20096;-62
2023/04/13 07:24:43;;;;;;;;;;;23.80;33.50;;;;;;5093255;28;20054;-62
2023/04/13 07:27:08;;;;;;;;;;;23.30;33.60;;;;;;5087399;28;20083;-62
2023/04/13 07:29:34;;;;;;;;;;;22.80;34.50;;;;;;5106814;28;19993;-62
2023/04/13 07:32:01;;;;;;;;;;;22.90;35.00;;;;;;5092016;28;20462;-62
2023/04/13 07:34:27;;;;;;;;;;;23.30;34.70;;;;;;5098244;28;20076;-64
2023/04/13 07:36:53;;;;;;;;;;;24.40;33.90;;;;;;5104139;28;20481;-62
2023/04/13 07:39:18;;;;;;;;;;;25.10;34.30;;;;;;5106091;28;20017;-64
2023/04/13 07:41:45;;;;;;;;;;;24.80;32.30;;;;;;5097704;28;20000;-64
2023/04/13 07:44:11;;;;;;;;;;;24.70;32.70;;;;;;5091698;28;20091;-64
2023/04/13 07:46:36;;;;;;;;;;;24.90;32.90;;;;;;5091729;28;20473;-64
2023/04/13 07:49:02;;;;;;;;;;;25.20;32.70;;;;;;5090955;28;19993;-64
2023/04/13 07:51:28;;;;;;;;;;;25.30;34.30;;;;;;5084698;28;20435;-65
2023/04/13 07:53:54;;;;;;;;;;;25.70;33.00;;;;;;5091177;28;19988;-63
2023/04/13 07:56:20;;;;;;;;;;;25.50;34.80;;;;;;5073686;28;20005;-63
2023/04/13 07:58:46;;;;;;;;;;;24.80;35.00;;;;;;5069986;28;20015;-65
2023/04/13 08:01:11;;;;;;;;;;;24.90;36.00;;;;;;5071451;28;19993;-63
2023/04/13 08:03:37;;;;;;;;;;;24.90;33.40;;;;;;5071195;28;20020;-65
2023/04/13 08:06:10;;;;;;;;;;;25.00;34.20;;;;;;5070352;28;19993;-68
2023/04/13 08:08:35;;;;;;;;;;;25.80;34.00;;;;;;5070173;28;20028;-63
2023/04/13 08:11:01;;;;;;;;;;;26.20;32.70;;;;;;5071571;28;20063;-63
2023/04/13 08:13:27;;;;;;;;;;;26.40;33.80;;;;;;5070176;28;20033;-62
2023/04/13 08:15:55;;;;;;;;;;;27.10;33.20;;;;;;5068450;28;19989;-65
2023/04/13 08:18:21;;;;;;;;;;;27.50;33.00;;;;;;5070438;28;20055;-66
2023/04/13 08:20:47;;;;;;;;;;;28.30;31.00;;;;;;5069066;28;20001;-65
2023/04/13 08:23:14;;;;;;;;;;;29.20;31.00;;;;;;5068947;28;19997;-65
2023/04/13 08:25:40;;;;;;;;;;;29.70;30.20;;;;;;5072946;28;19993;-65
2023/04/13 08:28:06;;;;;;;;;;;29.60;30.50;;;;;;5073508;28;19986;-63
2023/04/13 08:30:32;;;;;;;;;;;29.10;30.60;;;;;;5072400;28;19986;-65
2023/04/13 08:32:58;;;;;;;;;;;28.70;31.50;;;;;;5073372;28;19996;-64
2023/04/13 08:35:24;;;;;;;;;;;28.70;30.90;;;;;;5072641;28;20525;-62
2023/04/13 08:37:50;;;;;;;;;;;28.90;30.70;;;;;;5075607;28;20386;-65
2023/04/13 08:40:32;;;;;;;;;;;29.80;30.90;;;;;;5084879;28;20103;-66
2023/04/13 08:42:59;;;;;;;;;;;30.30;30.70;;;;;;5099032;28;19995;-64
2023/04/13 08:45:24;;;;;;;;;;;30.30;34.40;;;;;;5103081;28;19988;-62
2023/04/13 08:47:50;;;;;;;;;;;30.30;31.50;;;;;;5104103;28;20439;-61
2023/04/13 08:50:16;;;;;;;;;;;30.00;32.70;;;;;;5092964;28;19995;-62
2023/04/13 08:52:41;;;;;;;;;;;30.00;30.20;;;;;;5096989;28;19988;-60
2023/04/13 08:55:07;;;;;;;;;;;30.50;30.60;;;;;;5098114;28;20022;-63
2023/04/13 08:57:33;;;;;;;;;;;30.80;29.80;;;;;;5101709;28;20018;-64
2023/04/13 08:59:59;;;;;;;;;;;30.80;30.00;;;;;;5100567;28;20020;-64
2023/04/13 09:02:30;;;;;;;;;;;30.80;30.70;;;;;;5097791;28;20151;-62
2023/04/13 09:04:58;;;;;;;;;;;30.90;30.20;;;;;;5097876;28;20036;-64
2023/04/13 09:07:25;;;;;;;;;;;30.60;29.70;;;;;;5099109;28;20049;-63
2023/04/13 09:10:00;;;;;;;;;;;30.50;29.30;;;;;;5100318;28;20004;-63
2023/04/13 09:12:25;;;;;;;;;;;30.70;28.80;;;;;;5102502;28;20003;-60
2023/04/13 09:14:51;;;;;;;;;;;30.70;30.30;;;;;;5099055;28;20092;-61
2023/04/13 09:17:24;;;;;;;;;;;30.60;29.60;;;;;;5101321;28;19993;-59
2023/04/13 09:19:50;;;;;;;;;;;30.50;30.60;;;;;;5103259;28;20009;-60
2023/04/13 09:22:16;;;;;;;;;;;30.40;30.10;;;;;;5098025;28;20116;-60
2023/04/13 09:24:42;;;;;;;;;;;30.40;29.70;;;;;;5100264;28;20439;-61
2023/04/13 09:27:19;;;;;;;;;;;30.00;29.30;;;;;;5093634;28;20011;-61
2023/04/13 09:29:51;;;;;;;;;;;30.10;31.60;;;;;;5093210;28;20439;-61
2023/04/13 09:32:21;;;;;;;;;;;30.10;29.20;;;;;;5093804;28;19996;-61
2023/04/13 09:35:19;;;;;;;;;;;30.30;28.70;;;;;;5091326;28;19993;-63
2023/04/13 09:37:46;;;;;;;;;;;30.10;30.00;;;;;;5062761;28;20359;-63
2023/04/13 09:40:17;;;;;;;;;;;29.50;29.60;;;;;;5081596;28;20067;-64
2023/04/13 09:43:05;;;;;;;;;;;30.00;29.30;;;;;;5093940;28;19989;-64
2023/04/13 09:45:35;;;;;;;;;;;30.10;29.20;;;;;;5088971;28;20103;-64
2023/04/13 09:48:01;;;;;;;;;;;30.30;28.90;;;;;;5089884;28;19984;-63
2023/04/13 09:50:27;;;;;;;;;;;29.70;29.90;;;;;;5090307;28;20000;-63
2023/04/13 09:52:59;;;;;;;;;;;29.30;28.50;;;;;;5105614;28;19985;-62
2023/04/13 09:55:26;;;;;;;;;;;29.40;28.70;;;;;;5111254;28;20038;-61
2023/04/13 09:57:51;;;;;;;;;;;29.40;28.80;;;;;;5109951;28;19989;-62
2023/04/13 10:00:20;;;;;;;;;;;29.50;28.60;;;;;;5110052;28;20012;-61
2023/04/13 10:02:50;;;;;;;;;;;29.40;28.70;;;;;;5096642;28;19993;-62
2023/04/13 10:05:16;;;;;;;;;;;28.80;29.60;;;;;;5091016;28;20020;-64
2023/04/13 10:07:43;;;;;;;;;;;28.70;29.40;;;;;;5091999;28;19996;-60
2023/04/13 10:10:08;;;;;;;;;;;28.50;31.30;;;;;;5091983;28;20038;-61
2023/04/13 10:12:35;;;;;;;;;;;28.40;29.80;;;;;;5091491;28;19993;-63
2023/04/13 10:15:09;;;;;;;;;;;28.70;33.40;;;;;;5092093;28;19985;-62
2023/04/13 10:17:36;;;;;;;;;;;28.50;32.20;;;;;;5091946;28;19993;-64
2023/04/13 10:20:12;;;;;;;;;;;28.50;30.40;;;;;;5073846;28;20052;-64
2023/04/13 10:22:43;;;;;;;;;;;28.80;29.50;;;;;;5074083;28;19997;-61
2023/04/13 10:25:12;;;;;;;;;;;28.80;32.80;;;;;;5074289;28;19989;-63
2023/04/13 10:27:38;;;;;;;;;;;29.10;29.80;;;;;;5073677;28;19989;-64
2023/04/13 10:30:14;;;;;;;;;;;29.30;33.10;;;;;;5082376;28;19996;-61
2023/04/13 10:32:41;;;;;;;;;;;28.90;31.50;;;;;;5074872;28;20000;-63
2023/04/13 10:35:08;;;;;;;;;;;28.60;29.20;;;;;;5091805;28;20008;-64
2023/04/13 10:37:33;;;;;;;;;;;28.40;29.60;;;;;;5092749;28;20008;-64
2023/04/13 10:40:00;;;;;;;;;;;28.60;29.30;;;;;;5092279;28;20006;-63
2023/04/13 10:42:26;;;;;;;;;;;29.00;29.30;;;;;;5090847;28;19989;-64
2023/04/13 10:44:52;;;;;;;;;;;28.50;30.40;;;;;;5090769;28;19985;-62
2023/04/13 10:47:22;;;;;;;;;;;28.80;34.90;;;;;;5089409;28;19996;-63
2023/04/13 10:49:49;;;;;;;;;;;28.80;33.40;;;;;;5072872;28;19989;-62
2023/04/13 10:52:15;;;;;;;;;;;28.70;32.70;;;;;;5092593;28;19985;-61
2023/04/13 10:54:41;;;;;;;;;;;28.60;32.90;;;;;;5092428;28;19985;-61
2023/04/13 10:57:08;;;;;;;;;;;28.70;30.80;;;;;;5091889;28;20038;-62
2023/04/13 11:00:09;;;;;;;;;;;28.60;30.00;;;;;;5091008;28;20005;-61
2023/04/13 11:02:34;;;;;;;;;;;28.70;31.70;;;;;;5069761;28;19993;-63
2023/04/13 11:05:00;;;;;;;;;;;28.90;29.90;;;;;;5079876;28;20432;-60
2023/04/13 11:07:27;;;;;;;;;;;28.90;30.80;;;;;;5072975;28;20079;-63
2023/04/13 11:09:56;;;;;;;;;;;28.50;29.40;;;;;;5071984;28;20511;-63
2023/04/13 11:12:21;;;;;;;;;;;28.30;30.40;;;;;;5072273;28;20573;-63
2023/04/13 11:14:48;;;;;;;;;;;28.20;30.90;;;;;;5073624;28;20095;-62
2023/04/13 11:17:14;;;;;;;;;;;28.00;30.80;;;;;;5091138;28;20440;-62
2023/04/13 11:19:46;;;;;;;;;;;27.70;31.70;;;;;;5089299;28;20012;-62
2023/04/13 11:22:17;;;;;;;;;;;27.60;30.00;;;;;;5085034;28;19985;-62
2023/04/13 11:24:47;;;;;;;;;;;27.40;30.20;;;;;;5073280;28;20395;-61
2023/04/13 11:27:30;;;;;;;;;;;26.80;30.10;;;;;;5091578;28;19999;-62
2023/04/13 11:29:57;;;;;;;;;;;26.80;30.50;;;;;;5091806;28;20222;-62
2023/04/13 11:32:22;;;;;;;;;;;26.90;31.50;;;;;;5089756;28;20042;-62
2023/04/13 11:34:48;;;;;;;;;;;27.00;31.30;;;;;;5084294;28;19989;-61
2023/04/13 11:37:14;;;;;;;;;;;27.00;33.50;;;;;;5085324;28;20434;-62
2023/04/13 11:39:42;;;;;;;;;;;26.80;30.90;;;;;;5086428;28;20012;-62
2023/04/13 11:42:08;;;;;;;;;;;26.90;31.00;;;;;;5091951;28;20095;-62
2023/04/13 11:44:37;;;;;;;;;;;27.10;31.00;;;;;;5082937;28;20028;-61
2023/04/13 11:47:03;;;;;;;;;;;27.40;30.50;;;;;;5091548;28;19996;-62
2023/04/13 11:49:29;;;;;;;;;;;27.30;31.50;;;;;;5092028;28;20339;-61
2023/04/13 11:51:55;;;;;;;;;;;27.10;31.10;;;;;;5087286;28;20397;-62
2023/04/13 11:54:21;;;;;;;;;;;26.80;32.70;;;;;;5092891;28;20106;-60
2023/04/13 11:56:47;;;;;;;;;;;27.00;34.30;;;;;;5095832;28;19992;-61
2023/04/13 11:59:13;;;;;;;;;;;27.40;34.40;;;;;;5086312;28;20010;-62
2023/04/13 12:01:39;;;;;;;;;;;27.70;34.10;;;;;;5086156;28;19996;-61
2023/04/13 12:04:05;;;;;;;;;;;27.80;32.10;;;;;;5082127;28;19999;-62
2023/04/13 12:06:31;;;;;;;;;;;28.00;33.70;;;;;;5076765;28;20099;-62
2023/04/13 12:08:58;;;;;;;;;;;28.00;32.30;;;;;;5087123;28;19989;-62
2023/04/13 12:11:24;;;;;;;;;;;27.80;30.60;;;;;;5078194;28;20126;-60
2023/04/13 12:13:52;;;;;;;;;;;27.50;32.00;;;;;;5079672;28;20107;-60
2023/04/13 12:16:28;;;;;;;;;;;27.70;34.10;;;;;;5089053;28;19993;-60
2023/04/13 12:18:54;;;;;;;;;;;27.80;30.70;;;;;;5087719;28;20015;-60
2023/04/13 12:21:20;;;;;;;;;;;27.80;30.50;;;;;;5081389;28;19997;-61
2023/04/13 12:23:56;;;;;;;;;;;28.00;32.20;;;;;;5092649;28;19996;-62
2023/04/13 12:26:29;;;;;;;;;;;28.10;30.70;;;;;;5087010;28;20336;-61
2023/04/13 12:28:57;;;;;;;;;;;27.70;30.50;;;;;;5084849;28;19990;-61
2023/04/13 12:31:23;;;;;;;;;;;27.30;31.30;;;;;;5085838;28;20000;-63
2023/04/13 12:33:50;;;;;;;;;;;27.10;31.30;;;;;;5085726;28;19989;-61
2023/04/13 12:36:16;;;;;;;;;;;26.70;31.40;;;;;;5087990;28;20518;-61
2023/04/13 12:38:42;;;;;;;;;;;25.90;32.10;;;;;;5089342;28;20009;-62
2023/04/13 12:41:08;;;;;;;;;;;26.00;33.90;;;;;;5089292;28;20083;-61
2023/04/13 12:43:34;;;;;;;;;;;26.20;32.70;;;;;;5087607;28;19988;-61
2023/04/13 12:46:00;;;;;;;;;;;26.80;36.30;;;;;;5089388;28;20034;-61
2023/04/13 12:48:26;;;;;;;;;;;27.00;32.50;;;;;;5097205;28;19989;-61
2023/04/13 12:50:52;;;;;;;;;;;27.20;32.10;;;;;;5094040;28;19991;-60
2023/04/13 12:53:17;;;;;;;;;;;27.40;31.90;;;;;;5091104;28;19993;-62
2023/04/13 12:55:43;;;;;;;;;;;27.60;31.70;;;;;;5091400;28;20369;-62
2023/04/13 12:58:09;;;;;;;;;;;27.70;31.60;;;;;;5074758;28;20386;-61
2023/04/13 13:00:34;;;;;;;;;;;28.20;32.20;;;;;;5074866;28;19989;-61
2023/04/13 13:06:03;;;;;;;;;;;28.40;32.50;;;;;;5074841;28;19992;-61
2023/04/13 13:08:29;;;;;;;;;;;28.30;32.40;;;;;;5075667;28;20431;-61
2023/04/13 13:10:54;;;;;;;;;;;28.40;30.80;;;;;;5073256;28;19990;-61
2023/04/13 13:16:23;;;;;;;;;;;28.80;30.90;;;;;;5074983;28;19992;-60
2023/04/13 13:18:49;;;;;;;;;;;28.30;30.00;;;;;;5075266;28;20006;-60
2023/04/13 13:21:15;;;;;;;;;;;28.00;30.90;;;;;;5075354;28;19989;-59
2023/04/13 13:26:43;;;;;;;;;;;28.10;31.80;;;;;;5075480;28;19992;-60
2023/04/13 13:29:09;;;;;;;;;;;27.90;30.40;;;;;;5075210;28;19986;-59
2023/04/13 13:31:35;;;;;;;;;;;27.90;30.40;;;;;;5075415;28;20084;-60
2023/04/13 13:34:00;;;;;;;;;;;28.10;30.40;;;;;;5075402;28;20383;-60
2023/04/13 13:36:26;;;;;;;;;;;28.30;30.30;;;;;;5075146;28;20024;-60
2023/04/13 13:41:56;;;;;;;;;;;28.30;30.50;;;;;;5075485;28;19991;-60
2023/04/13 13:44:21;;;;;;;;;;;28.40;31.10;;;;;;5075067;28;19986;-60
2023/04/13 13:46:47;;;;;;;;;;;28.10;30.90;;;;;;5075147;28;19989;-60
2023/04/13 13:49:12;;;;;;;;;;;27.40;32.20;;;;;;5075038;28;20406;-60
2023/04/13 13:51:38;;;;;;;;;;;27.30;32.30;;;;;;5075038;28;20000;-60
2023/04/13 13:54:03;;;;;;;;;;;27.20;31.50;;;;;;5074913;28;19996;-59
2023/04/13 13:56:29;;;;;;;;;;;27.20;31.90;;;;;;5074883;28;20038;-60
2023/04/13 13:58:55;;;;;;;;;;;26.30;32.50;;;;;;5074901;28;20014;-60
2023/04/13 14:01:20;;;;;;;;;;;25.90;33.30;;;;;;5074908;28;19993;-60
2023/04/13 14:03:46;;;;;;;;;;;25.80;33.90;;;;;;5075002;28;20439;-60
2023/04/13 14:06:11;;;;;;;;;;;25.70;33.40;;;;;;5074938;28;20499;-60
2023/04/13 14:08:37;;;;;;;;;;;25.90;33.40;;;;;;5074819;28;20560;-59
2023/04/13 14:11:02;;;;;;;;;;;25.70;33.30;;;;;;5074704;28;20435;-59
2023/04/13 14:13:28;;;;;;;;;;;25.60;34.30;;;;;;5074426;28;19985;-60
2023/04/13 14:15:54;;;;;;;;;;;25.60;33.60;;;;;;5074670;28;19989;-60
2023/04/13 14:21:22;;;;;;;;;;;25.70;33.90;;;;;;5074447;28;20462;-59
2023/04/13 14:23:49;;;;;;;;;;;25.90;33.90;;;;;;5074054;28;19985;-60
2023/04/13 14:26:14;;;;;;;;;;;25.90;33.70;;;;;;5074622;28;20003;-60
2023/04/13 14:28:41;;;;;;;;;;;25.70;33.40;;;;;;5074101;28;19989;-60
2023/04/13 14:31:07;;;;;;;;;;;25.60;34.20;;;;;;5073874;28;20000;-59
2023/04/13 14:33:33;;;;;;;;;;;25.60;35.20;;;;;;5074093;28;20355;-59
2023/04/13 14:35:58;;;;;;;;;;;25.70;34.50;;;;;;5074050;28;20111;-60